^^
Saratoga-Weather Station Historical Data
Daily Summary for February 7, 2020 Units:  Metric    English   Both
Daily Weekly Monthly Yearly Custom
  High: Low: Average:
Temperature: 7.8 °C 0.8 °C 5.2 °C
Dew Point: 6.5 °C 0.5 °C 4.4 °C
Humidity: 98% 88% 95%
Wind Speed: 25.7km/h 0km/h 2.6km/h
Wind Gust: 25.7km/h - -
Wind- - WSW
Pressure: 1030.5 hPa 1024.7 hPa -
Precipitation: 0.2 mm    
Historical Graphs
 
 
Tabular Data for February 7, 2020
Time Temperature Dew Point Pressure Wind Wind Speed Wind Gust Humidity Rainfall Rate (Hourly) solar
00:04 0.8 °C 0.5 °C 1025.1 hPa Calm   3.2 km/h 98% 0.0 mm 0 W/m2
00:09 0.9 °C 0.6 °C 1025.4 hPa Calm   1.6 km/h 98% 0.0 mm 0 W/m2
00:14 1.3 °C 1 °C 1025.4 hPa Calm   1.6 km/h 98% 0.0 mm 0 W/m2
00:19 1.7 °C 1.4 °C 1025.1 hPa SSE 3.2 km/h 3.2 km/h 98% 0.0 mm 0 W/m2
00:24 2.1 °C 1.8 °C 1025.1 hPa South 6.4 km/h 6.4 km/h 98% 0.0 mm 0 W/m2
00:29 2.2 °C 1.9 °C 1025.1 hPa Calm   1.6 km/h 98% 0.0 mm 0 W/m2
00:34 2.3 °C 2 °C 1025.1 hPa West 1.4 km/h 9.7 km/h 98% 0.0 mm 0 W/m2
00:39 2.4 °C 2.1 °C 1025.1 hPa WNW 7.9 km/h 9.7 km/h 98% 0.0 mm 0 W/m2
00:44 2.5 °C 2.2 °C 1024.7 hPa Calm   4.8 km/h 98% 0.0 mm 0 W/m2
00:49 2.4 °C 2.1 °C 1025.1 hPa SSW 3.2 km/h 3.2 km/h 98% 0.0 mm 0 W/m2
00:54 2.4 °C 2.1 °C 1024.7 hPa Calm   4.8 km/h 98% 0.0 mm 0 W/m2
00:59 2.4 °C 2.1 °C 1025.1 hPa Calm   1.6 km/h 98% 0.0 mm 0 W/m2
01:04 2.4 °C 2.1 °C 1025.1 hPa Calm   4.8 km/h 98% 0.0 mm 0 W/m2
01:09 2.5 °C 2.2 °C 1025.1 hPa Calm     98% 0.0 mm 0 W/m2
01:14 2.4 °C 2.1 °C 1025.1 hPa Calm   3.2 km/h 98% 0.0 mm 0 W/m2
01:20 2.4 °C 2.1 °C 1025.1 hPa Calm   3.2 km/h 98% 0.0 mm 0 W/m2
01:25 2.4 °C 2.1 °C 1025.4 hPa West 3.2 km/h 9.7 km/h 98% 0.0 mm 0 W/m2
01:30 2.6 °C 2.3 °C 1025.1 hPa East 1.4 km/h 6.4 km/h 98% 0.0 mm 0 W/m2
01:35 2.7 °C 2.4 °C 1025.1 hPa NW 3.2 km/h 3.2 km/h 98% 0.0 mm 0 W/m2
01:40 2.7 °C 2.4 °C 1025.1 hPa Calm   4.8 km/h 98% 0.0 mm 0 W/m2
01:45 2.8 °C 2.5 °C 1025.1 hPa West 14.5 km/h 14.5 km/h 98% 0.0 mm 0 W/m2
01:50 2.9 °C 2.6 °C 1025.1 hPa West 13 km/h 16.1 km/h 98% 0.0 mm 0 W/m2
01:55 3.1 °C 2.8 °C 1025.4 hPa NW 11.1 km/h 14.5 km/h 98% 0.0 mm 0 W/m2
02:00 3.1 °C 2.8 °C 1025.4 hPa WNW 4.7 km/h 22.5 km/h 98% 0.0 mm 0 W/m2
02:05 3.2 °C 2.9 °C 1025.4 hPa West 16.3 km/h 25.7 km/h 98% 0.0 mm 0 W/m2
02:10 3.3 °C 3 °C 1025.4 hPa WNW 6.4 km/h 12.9 km/h 98% 0.2 mm 0 W/m2
02:15 3.3 °C 3 °C 1025.4 hPa WNW 25.7 km/h 25.7 km/h 98% 0.2 mm 0 W/m2
02:20 3.3 °C 3 °C 1025.4 hPa WSW 14.3 km/h 16.1 km/h 98% 0.2 mm 0 W/m2
02:26 3.4 °C 3.1 °C 1025.4 hPa WSW 6.4 km/h 22.5 km/h 98% 0.2 mm 0 W/m2
02:31 3.4 °C 3.1 °C 1025.4 hPa WNW 4.7 km/h 9.7 km/h 98% 0.2 mm 0 W/m2
02:36 3.6 °C 3.3 °C 1025.7 hPa West 3.2 km/h 11.3 km/h 98% 0.2 mm 0 W/m2
02:41 3.6 °C 3.3 °C 1025.7 hPa Calm   4.8 km/h 98% 0.2 mm 0 W/m2
02:46 3.6 °C 3.3 °C 1026.1 hPa West 6.4 km/h 12.9 km/h 98% 0.2 mm 0 W/m2
02:51 3.7 °C 3.4 °C 1026.1 hPa West 1.4 km/h 6.4 km/h 98% 0.2 mm 0 W/m2
02:56 3.8 °C 3.5 °C 1026.1 hPa Calm   9.7 km/h 98% 0.2 mm 0 W/m2
03:01 3.8 °C 3.5 °C 1026.1 hPa WSW 3.2 km/h 11.3 km/h 98% 0.2 mm 0 W/m2
03:06 3.9 °C 3.6 °C 1026.1 hPa SW 4.7 km/h 12.9 km/h 98% 0.0 mm 0 W/m2
03:11 4 °C 3.7 °C 1026.1 hPa WSW 13 km/h 16.1 km/h 98% 0.0 mm 0 W/m2
03:16 4 °C 3.7 °C 1026.4 hPa NW 13 km/h 16.1 km/h 98% 0.0 mm 0 W/m2
03:21 4.1 °C 3.8 °C 1026.4 hPa West 14.3 km/h 14.5 km/h 98% 0.0 mm 0 W/m2
03:26 4.1 °C 3.8 °C 1026.4 hPa West 6.4 km/h 11.3 km/h 98% 0.0 mm 0 W/m2
03:31 4.1 °C 3.8 °C 1026.4 hPa WSW 3.2 km/h 16.1 km/h 98% 0.0 mm 0 W/m2
03:37 4.2 °C 3.9 °C 1026.4 hPa WNW 4.7 km/h 11.3 km/h 98% 0.0 mm 0 W/m2
03:42 4.2 °C 3.9 °C 1026.4 hPa WSW 7.9 km/h 14.5 km/h 98% 0.0 mm 0 W/m2
03:47 4.2 °C 3.9 °C 1026.4 hPa SW 3.2 km/h 9.7 km/h 98% 0.0 mm 0 W/m2
03:52 4.2 °C 3.9 °C 1026.4 hPa WSW 16.3 km/h 19.3 km/h 98% 0.0 mm 0 W/m2
03:57 4.3 °C 4 °C 1026.4 hPa SW 1.4 km/h 11.3 km/h 98% 0.0 mm 0 W/m2
04:02 4.3 °C 4 °C 1026.4 hPa WSW 11.1 km/h 14.5 km/h 98% 0.0 mm 0 W/m2
04:07 4.3 °C 4 °C 1026.4 hPa West 4.7 km/h 9.7 km/h 98% 0.0 mm 0 W/m2
04:12 4.3 °C 4 °C 1026.4 hPa WSW 7.9 km/h 12.9 km/h 98% 0.0 mm 0 W/m2
04:17 4.4 °C 4.1 °C 1026.4 hPa West 4.7 km/h 12.9 km/h 98% 0.0 mm 0 W/m2
04:22 4.4 °C 4.1 °C 1026.4 hPa SW 7.9 km/h 14.5 km/h 98% 0.0 mm 0 W/m2
04:27 4.4 °C 4.1 °C 1026.4 hPa WNW 7.9 km/h 11.3 km/h 98% 0.0 mm 0 W/m2
04:32 4.5 °C 4.2 °C 1026.8 hPa WSW 11.1 km/h 14.5 km/h 98% 0.0 mm 0 W/m2
04:37 4.6 °C 4.3 °C 1026.4 hPa West 9.7 km/h 11.3 km/h 98% 0.0 mm 0 W/m2
04:42 4.6 °C 4.3 °C 1026.8 hPa West 6.4 km/h 14.5 km/h 98% 0.0 mm 0 W/m2
04:47 4.6 °C 4.3 °C 1026.8 hPa West 3.2 km/h 12.9 km/h 98% 0.0 mm 0 W/m2
04:52 4.6 °C 4.3 °C 1026.8 hPa West 6.4 km/h 16.1 km/h 98% 0.0 mm 0 W/m2
04:57 4.7 °C 4.4 °C 1026.8 hPa WSW 14.3 km/h 16.1 km/h 98% 0.0 mm 0 W/m2
05:02 4.7 °C 4.4 °C 1026.8 hPa WSW 11.1 km/h 17.7 km/h 98% 0.0 mm 0 W/m2
05:07 4.8 °C 4.5 °C 1026.8 hPa WNW 6.4 km/h 9.7 km/h 98% 0.0 mm 0 W/m2
05:12 4.8 °C 4.5 °C 1026.8 hPa WSW 1.4 km/h 8 km/h 98% 0.0 mm 0 W/m2
05:17 4.9 °C 4.6 °C 1026.8 hPa SW 4.7 km/h 14.5 km/h 98% 0.0 mm 0 W/m2
05:22 4.9 °C 4.6 °C 1026.8 hPa WSW 7.9 km/h 12.9 km/h 98% 0.0 mm 0 W/m2
05:27 5 °C 4.7 °C 1026.8 hPa WSW 7.9 km/h 9.7 km/h 98% 0.0 mm 0 W/m2
05:32 5 °C 4.6 °C 1026.8 hPa West 6.4 km/h 16.1 km/h 97% 0.0 mm 0 W/m2
05:37 5.1 °C 4.8 °C 1026.8 hPa WSW 14.3 km/h 14.5 km/h 98% 0.0 mm 0 W/m2
05:42 5.1 °C 4.8 °C 1026.8 hPa SW 9.7 km/h 14.5 km/h 98% 0.0 mm 0 W/m2
05:47 5.1 °C 4.7 °C 1026.8 hPa WSW 4.7 km/h 11.3 km/h 97% 0.0 mm 0 W/m2
05:53 5.2 °C 4.8 °C 1026.8 hPa WSW 11.1 km/h 11.3 km/h 97% 0.0 mm 0 W/m2
05:58 5.2 °C 4.8 °C 1026.8 hPa West 6.4 km/h 17.7 km/h 97% 0.0 mm 0 W/m2
06:03 5.2 °C 4.8 °C 1027.1 hPa WNW 11.1 km/h 14.5 km/h 97% 0.0 mm 0 W/m2
06:08 5.2 °C 4.8 °C 1027.1 hPa WSW 3.2 km/h 17.7 km/h 97% 0.0 mm 0 W/m2
06:13 5.2 °C 4.8 °C 1027.1 hPa West 6.4 km/h 9.7 km/h 97% 0.0 mm 0 W/m2
06:18 5.2 °C 4.8 °C 1027.1 hPa West 3.2 km/h 3.2 km/h 97% 0.0 mm 0 W/m2
06:23 5.3 °C 4.9 °C 1027.1 hPa WNW 1.4 km/h 6.4 km/h 97% 0.0 mm 0 W/m2
06:28 5.3 °C 4.9 °C 1027.1 hPa South 6.4 km/h 14.5 km/h 97% 0.0 mm 0 W/m2
06:33 5.3 °C 4.9 °C 1027.1 hPa WNW 6.4 km/h 11.3 km/h 97% 0.0 mm 0 W/m2
06:38 5.3 °C 4.9 °C 1027.4 hPa West 4.7 km/h 12.9 km/h 97% 0.0 mm 0 W/m2
06:43 5.3 °C 4.9 °C 1027.4 hPa WSW 3.2 km/h 8 km/h 97% 0.0 mm 0 W/m2
06:48 5.4 °C 5 °C 1027.4 hPa West 4.7 km/h 19.3 km/h 97% 0.0 mm 0 W/m2
06:53 5.4 °C 5 °C 1027.4 hPa WSW 6.4 km/h 12.9 km/h 97% 0.0 mm 0 W/m2
06:58 5.4 °C 5 °C 1027.4 hPa WNW 9.7 km/h 12.9 km/h 97% 0.0 mm 0 W/m2
07:03 5.4 °C 5 °C 1027.8 hPa Calm   6.4 km/h 97% 0.0 mm 0 W/m2
07:08 5.4 °C 5 °C 1027.8 hPa WSW 7.9 km/h 9.7 km/h 97% 0.0 mm 0 W/m2
07:13 5.5 °C 5.1 °C 1027.8 hPa West 3.2 km/h 6.4 km/h 97% 0.0 mm 0 W/m2
07:18 5.5 °C 5.1 °C 1027.8 hPa WSW 4.7 km/h 6.4 km/h 97% 0.0 mm 0 W/m2
07:24 5.5 °C 5.1 °C 1027.8 hPa West 6.4 km/h 16.1 km/h 97% 0.0 mm 0 W/m2
07:29 5.5 °C 5.1 °C 1027.8 hPa SW 4.7 km/h   97% 0.0 mm 0 W/m2
07:34 5.6 °C 5.2 °C 1027.8 hPa West 4.7 km/h 9.7 km/h 97% 0.0 mm 0 W/m2
07:39 5.6 °C 5.2 °C 1028.1 hPa West 3.2 km/h 8 km/h 97% 0.0 mm 0 W/m2
07:44 5.6 °C 5.2 °C 1028.5 hPa SSW 4.7 km/h 9.7 km/h 97% 0.0 mm 0 W/m2
07:49 5.7 °C 5.3 °C 1028.5 hPa WSW 1.4 km/h 6.4 km/h 97% 0.0 mm 0 W/m2
07:54 5.7 °C 5.3 °C 1028.5 hPa WSW 1.4 km/h 3.2 km/h 97% 0.0 mm 0 W/m2
07:59 5.7 °C 5.3 °C 1028.5 hPa WSW 7.9 km/h 9.7 km/h 97% 0.0 mm 0 W/m2
08:04 5.7 °C 5.3 °C 1028.5 hPa West 6.4 km/h 9.7 km/h 97% 0.0 mm 0 W/m2
08:09 5.7 °C 5.3 °C 1028.5 hPa WSW 6.4 km/h 8 km/h 97% 0.0 mm 0 W/m2
08:14 5.7 °C 5.3 °C 1028.8 hPa WSW 4.7 km/h 4.8 km/h 97% 0.0 mm 0 W/m2
08:19 5.7 °C 5.3 °C 1028.8 hPa WNW 6.4 km/h 14.5 km/h 97% 0.0 mm 0 W/m2
08:24 5.7 °C 5.3 °C 1029.1 hPa West 4.7 km/h 9.7 km/h 97% 0.0 mm 0 W/m2
08:29 5.7 °C 5.3 °C 1029.1 hPa West 3.2 km/h 14.5 km/h 97% 0.0 mm 0 W/m2
08:34 5.7 °C 5.3 °C 1029.1 hPa Calm   3.2 km/h 97% 0.0 mm 0 W/m2
08:39 5.7 °C 5.3 °C 1029.5 hPa Calm     97% 0.0 mm 0 W/m2
08:44 5.7 °C 5.3 °C 1029.5 hPa Calm   6.4 km/h 97% 0.0 mm 5 W/m2
08:49 5.7 °C 5.3 °C 1029.5 hPa Calm   4.8 km/h 97% 0.0 mm 7 W/m2
08:54 5.7 °C 5.3 °C 1029.5 hPa WSW 1.4 km/h 1.6 km/h 97% 0.0 mm 11 W/m2
08:59 5.8 °C 5.4 °C 1029.5 hPa West 1.4 km/h 3.2 km/h 97% 0.0 mm 12 W/m2
09:04 5.8 °C 5.4 °C 1029.5 hPa Calm     97% 0.0 mm 19 W/m2
09:09 5.8 °C 5.4 °C 1029.8 hPa Calm     97% 0.0 mm 19 W/m2
09:14 5.8 °C 5.4 °C 1029.8 hPa Calm     97% 0.0 mm 33 W/m2
09:20 5.9 °C 5.5 °C 1029.8 hPa Calm     97% 0.0 mm 37 W/m2
09:25 5.9 °C 5.5 °C 1029.8 hPa Calm   3.2 km/h 97% 0.0 mm 37 W/m2
09:30 5.9 °C 5.5 °C 1029.8 hPa Calm     97% 0.0 mm 58 W/m2
09:35 5.9 °C 5.5 °C 1029.8 hPa Calm   4.8 km/h 97% 0.0 mm 47 W/m2
09:40 5.9 °C 5.5 °C 1029.8 hPa Calm   3.2 km/h 97% 0.0 mm 40 W/m2
09:45 5.9 °C 5.5 °C 1029.8 hPa SSE 3.2 km/h 4.8 km/h 97% 0.0 mm 33 W/m2
09:50 6 °C 5.6 °C 1029.8 hPa Calm   1.6 km/h 97% 0.0 mm 35 W/m2
09:55 6 °C 5.6 °C 1029.8 hPa West 4.7 km/h 4.8 km/h 97% 0.0 mm 81 W/m2
10:00 6.1 °C 5.7 °C 1029.8 hPa WSW 6.4 km/h 9.7 km/h 97% 0.0 mm 86 W/m2
10:05 6.1 °C 5.7 °C 1029.8 hPa Calm   6.4 km/h 97% 0.0 mm 67 W/m2
10:10 6.1 °C 5.7 °C 1029.8 hPa South 1.4 km/h 9.7 km/h 97% 0.0 mm 69 W/m2
10:15 6.1 °C 5.7 °C 1029.8 hPa WSW 9.7 km/h 9.7 km/h 97% 0.0 mm 54 W/m2
10:20 6.1 °C 5.5 °C 1029.8 hPa Calm   6.4 km/h 96% 0.0 mm 74 W/m2
10:25 6.1 °C 5.5 °C 1029.8 hPa WSW 4.7 km/h 6.4 km/h 96% 0.0 mm 97 W/m2
10:30 6.2 °C 5.6 °C 1030.1 hPa West 4.7 km/h 4.8 km/h 96% 0.0 mm 127 W/m2
10:35 6.3 °C 5.7 °C 1030.1 hPa SSE 1.4 km/h 12.9 km/h 96% 0.0 mm 90 W/m2
10:40 6.3 °C 5.7 °C 1030.1 hPa WSW 3.2 km/h 4.8 km/h 96% 0.0 mm 62 W/m2
10:45 6.3 °C 5.7 °C 1030.1 hPa West 4.7 km/h 6.4 km/h 96% 0.0 mm 37 W/m2
10:50 6.3 °C 5.7 °C 1030.1 hPa SW 3.2 km/h 8 km/h 96% 0.0 mm 18 W/m2
10:55 6.3 °C 5.7 °C 1030.1 hPa Calm   3.2 km/h 96% 0.0 mm 12 W/m2
11:00 6.3 °C 5.7 °C 1030.1 hPa SW 1.4 km/h 4.8 km/h 96% 0.0 mm 14 W/m2
11:05 6.3 °C 5.7 °C 1030.1 hPa WSW 11.1 km/h 11.3 km/h 96% 0.0 mm 53 W/m2
11:10 6.3 °C 5.7 °C 1030.1 hPa West 1.4 km/h 1.6 km/h 96% 0.0 mm 40 W/m2
11:15 6.3 °C 5.7 °C 1030.1 hPa Calm   6.4 km/h 96% 0.0 mm 44 W/m2
11:20 6.3 °C 5.7 °C 1030.1 hPa Calm   12.9 km/h 96% 0.0 mm 65 W/m2
11:25 6.4 °C 5.8 °C 1030.1 hPa WSW 6.4 km/h 6.4 km/h 96% 0.0 mm 72 W/m2
11:30 6.4 °C 5.8 °C 1030.1 hPa South 3.2 km/h 11.3 km/h 96% 0.0 mm 83 W/m2
11:35 6.5 °C 5.9 °C 1030.1 hPa Calm   4.8 km/h 96% 0.0 mm 81 W/m2
11:40 6.6 °C 6 °C 1030.1 hPa West 11.1 km/h 12.9 km/h 96% 0.0 mm 70 W/m2
11:45 6.6 °C 6 °C 1030.1 hPa SW 1.4 km/h 6.4 km/h 96% 0.0 mm 67 W/m2
11:50 6.6 °C 6 °C 1030.5 hPa Calm   1.6 km/h 96% 0.0 mm 54 W/m2
11:55 6.7 °C 6 °C 1030.1 hPa SW 4.7 km/h 6.4 km/h 95% 0.0 mm 54 W/m2
12:00 6.7 °C 6 °C 1030.1 hPa Calm   3.2 km/h 95% 0.0 mm 62 W/m2
12:05 6.7 °C 6 °C 1030.1 hPa Calm   1.6 km/h 95% 0.0 mm 79 W/m2
12:10 6.7 °C 6 °C 1030.1 hPa WSW 1.4 km/h 1.6 km/h 95% 0.0 mm 69 W/m2
12:15 6.7 °C 6 °C 1030.1 hPa Calm   4.8 km/h 95% 0.0 mm 65 W/m2
12:20 6.8 °C 6.1 °C 1030.1 hPa SSW 4.7 km/h 6.4 km/h 95% 0.0 mm 86 W/m2
12:25 6.8 °C 6.1 °C 1030.1 hPa Calm     95% 0.0 mm 83 W/m2
12:30 6.9 °C 6.2 °C 1030.1 hPa Calm   11.3 km/h 95% 0.0 mm 72 W/m2
12:35 6.9 °C 6.2 °C 1030.1 hPa West 1.4 km/h 1.6 km/h 95% 0.0 mm 70 W/m2
12:40 6.9 °C 6.2 °C 1030.1 hPa Calm   4.8 km/h 95% 0.0 mm 53 W/m2
12:45 7 °C 6.3 °C 1030.1 hPa Calm     95% 0.0 mm 81 W/m2
12:50 7.1 °C 6.2 °C 1030.1 hPa Calm   3.2 km/h 94% 0.0 mm 107 W/m2
12:55 7.2 °C 6.3 °C 1030.1 hPa Calm     94% 0.0 mm 86 W/m2
13:00 7.2 °C 6.3 °C 1030.1 hPa West 4.7 km/h 4.8 km/h 94% 0.0 mm 74 W/m2
13:05 7.3 °C 6.4 °C 1029.8 hPa Calm     94% 0.0 mm 76 W/m2
13:10 7.3 °C 6.4 °C 1029.8 hPa Calm   1.6 km/h 94% 0.0 mm 70 W/m2
13:15 7.3 °C 6.4 °C 1029.8 hPa Calm     94% 0.0 mm 102 W/m2
13:20 7.4 °C 6.3 °C 1029.8 hPa Calm   1.6 km/h 93% 0.0 mm 84 W/m2
13:25 7.4 °C 6.3 °C 1029.5 hPa Calm   4.8 km/h 93% 0.0 mm 100 W/m2
13:30 7.5 °C 6.4 °C 1029.5 hPa Calm   3.2 km/h 93% 0.0 mm 104 W/m2
13:35 7.5 °C 6.4 °C 1029.5 hPa SW 3.2 km/h 6.4 km/h 93% 0.0 mm 121 W/m2
13:41 7.6 °C 6.4 °C 1029.5 hPa Calm   4.8 km/h 92% 0.0 mm 111 W/m2
13:46 7.6 °C 6.4 °C 1029.5 hPa Calm     92% 0.0 mm 90 W/m2
13:51 7.7 °C 6.5 °C 1029.5 hPa Calm   1.6 km/h 92% 0.0 mm 70 W/m2
13:56 7.6 °C 6.4 °C 1029.5 hPa SSW 3.2 km/h 4.8 km/h 92% 0.0 mm 63 W/m2
14:01 7.6 °C 6.2 °C 1029.5 hPa Calm     91% 0.0 mm 102 W/m2
14:06 7.7 °C 6.5 °C 1029.5 hPa West 4.7 km/h 9.7 km/h 92% 0.0 mm 95 W/m2
14:11 7.7 °C 6.3 °C 1029.5 hPa Calm     91% 0.0 mm 86 W/m2
14:16 7.7 °C 6.3 °C 1029.5 hPa Calm   8 km/h 91% 0.0 mm 100 W/m2
14:21 7.7 °C 6.3 °C 1029.5 hPa Calm   1.6 km/h 91% 0.0 mm 90 W/m2
14:26 7.7 °C 6.2 °C 1029.5 hPa Calm   1.6 km/h 90% 0.0 mm 83 W/m2
14:31 7.7 °C 6.2 °C 1029.5 hPa Calm     90% 0.0 mm 76 W/m2
14:36 7.8 °C 6.3 °C 1029.5 hPa Calm   1.6 km/h 90% 0.0 mm 86 W/m2
14:41 7.8 °C 6.3 °C 1029.5 hPa WSW 4.7 km/h 4.8 km/h 90% 0.0 mm 53 W/m2
14:46 7.8 °C 6.3 °C 1029.5 hPa SW 1.4 km/h 1.6 km/h 90% 0.0 mm 54 W/m2
14:51 7.8 °C 6.1 °C 1029.5 hPa West 3.2 km/h 3.2 km/h 89% 0.0 mm 60 W/m2
14:56 7.8 °C 6.1 °C 1029.5 hPa Calm     89% 0.0 mm 53 W/m2
15:01 7.8 °C 6.1 °C 1029.5 hPa Calm     89% 0.0 mm 51 W/m2
15:06 7.8 °C 6.1 °C 1029.5 hPa Calm   3.2 km/h 89% 0.0 mm 56 W/m2
15:11 7.8 °C 6.1 °C 1029.5 hPa Calm     89% 0.0 mm 44 W/m2
15:16 7.8 °C 6.1 °C 1029.5 hPa Calm   3.2 km/h 89% 0.0 mm 26 W/m2
15:22 7.7 °C 5.8 °C 1029.5 hPa WSW 1.4 km/h 3.2 km/h 88% 0.0 mm 19 W/m2
15:27 7.7 °C 5.8 °C 1029.5 hPa Calm   3.2 km/h 88% 0.0 mm 46 W/m2
15:32 7.7 °C 5.8 °C 1029.5 hPa Calm   3.2 km/h 88% 0.0 mm 58 W/m2
15:37 7.7 °C 5.8 °C 1029.5 hPa Calm   1.6 km/h 88% 0.0 mm 42 W/m2
15:42 7.6 °C 5.7 °C 1029.8 hPa Calm     88% 0.0 mm 32 W/m2
15:47 7.6 °C 5.9 °C 1029.8 hPa Calm   3.2 km/h 89% 0.0 mm 25 W/m2
15:52 7.6 °C 5.7 °C 1029.5 hPa Calm     88% 0.0 mm 35 W/m2
15:57 7.6 °C 5.7 °C 1029.8 hPa Calm     88% 0.0 mm 33 W/m2
16:02 7.6 °C 5.7 °C 1029.8 hPa Calm     88% 0.0 mm 30 W/m2
16:07 7.6 °C 5.7 °C 1029.8 hPa Calm     88% 0.0 mm 28 W/m2
16:12 7.5 °C 5.6 °C 1029.8 hPa Calm     88% 0.0 mm 30 W/m2
16:17 7.5 °C 5.8 °C 1029.8 hPa Calm     89% 0.0 mm 25 W/m2
16:22 7.4 °C 5.5 °C 1029.8 hPa Calm     88% 0.0 mm 25 W/m2
16:28 7.4 °C 5.7 °C 1029.8 hPa Calm     89% 0.0 mm 19 W/m2
16:33 7.4 °C 5.7 °C 1029.8 hPa Calm     89% 0.0 mm 11 W/m2
16:38 7.3 °C 5.6 °C 1029.5 hPa Calm     89% 0.0 mm 11 W/m2
16:43 7.2 °C 5.5 °C 1029.5 hPa Calm     89% 0.0 mm 7 W/m2
16:48 7.1 °C 5.6 °C 1029.5 hPa ENE 1.4 km/h 3.2 km/h 90% 0.0 mm 5 W/m2
16:53 7 °C 5.5 °C 1029.8 hPa Calm     90% 0.0 mm 0 W/m2
16:58 6.9 °C 5.4 °C 1029.8 hPa Calm   3.2 km/h 90% 0.0 mm 0 W/m2
17:03 6.9 °C 5.4 °C 1029.8 hPa Calm   1.6 km/h 90% 0.0 mm 0 W/m2
17:08 6.9 °C 5.4 °C 1029.5 hPa Calm     90% 0.0 mm 0 W/m2
17:13 6.9 °C 5.4 °C 1029.5 hPa Calm   3.2 km/h 90% 0.0 mm 0 W/m2
17:18 6.8 °C 5.4 °C 1029.5 hPa East 4.7 km/h 4.8 km/h 91% 0.0 mm 0 W/m2
17:23 6.8 °C 5.4 °C 1029.8 hPa Calm     91% 0.0 mm 0 W/m2
17:28 6.8 °C 5.4 °C 1029.8 hPa Calm     91% 0.0 mm 0 W/m2
17:33 6.8 °C 5.4 °C 1030.1 hPa Calm     91% 0.0 mm 0 W/m2
17:38 6.8 °C 5.4 °C 1029.8 hPa Calm     91% 0.0 mm 0 W/m2
17:43 6.7 °C 5.3 °C 1029.8 hPa Calm     91% 0.0 mm 0 W/m2
17:48 6.6 °C 5.2 °C 1029.5 hPa Calm     91% 0.0 mm 0 W/m2
17:53 6.6 °C 5.2 °C 1029.5 hPa Calm   3.2 km/h 91% 0.0 mm 0 W/m2
17:58 6.5 °C 5.1 °C 1029.5 hPa Calm     91% 0.0 mm 0 W/m2
18:03 6.4 °C 5 °C 1029.8 hPa Calm     91% 0.0 mm 0 W/m2
18:08 6.2 °C 4.8 °C 1029.8 hPa Calm     91% 0.0 mm 0 W/m2
18:13 6.1 °C 4.6 °C 1029.8 hPa Calm     90% 0.0 mm 0 W/m2
18:18 5.9 °C 4.5 °C 1029.8 hPa Calm     91% 0.0 mm 0 W/m2
18:23 5.7 °C 4.3 °C 1029.5 hPa Calm     91% 0.0 mm 0 W/m2
18:28 5.6 °C 4.2 °C 1029.5 hPa Calm     91% 0.0 mm 0 W/m2
18:33 5.4 °C 4.2 °C 1029.8 hPa NW 1.4 km/h 1.6 km/h 92% 0.0 mm 0 W/m2
18:38 5.2 °C 3.9 °C 1029.5 hPa Calm   1.6 km/h 91% 0.0 mm 0 W/m2
18:43 5 °C 3.8 °C 1029.5 hPa Calm     92% 0.0 mm 0 W/m2
18:48 4.8 °C 3.6 °C 1029.5 hPa Calm     92% 0.0 mm 0 W/m2
18:53 4.6 °C 3.4 °C 1029.5 hPa Calm     92% 0.0 mm 0 W/m2
18:58 4.4 °C 3.2 °C 1029.8 hPa Calm     92% 0.0 mm 0 W/m2
19:03 4.3 °C 3.3 °C 1029.5 hPa Calm     93% 0.0 mm 0 W/m2
19:08 4.2 °C 3.2 °C 1029.5 hPa WNW 1.4 km/h 6.4 km/h 93% 0.0 mm 0 W/m2
19:13 4.2 °C 3.2 °C 1029.5 hPa Calm     93% 0.0 mm 0 W/m2
19:18 4.1 °C 3.1 °C 1029.5 hPa Calm   1.6 km/h 93% 0.0 mm 0 W/m2
19:23 4.3 °C 3.4 °C 1029.5 hPa Calm   1.6 km/h 94% 0.0 mm 0 W/m2
19:28 4.3 °C 3.4 °C 1029.5 hPa Calm     94% 0.0 mm 0 W/m2
19:33 4.4 °C 3.5 °C 1029.5 hPa Calm     94% 0.0 mm 0 W/m2
19:38 4.4 °C 3.5 °C 1029.5 hPa Calm     94% 0.0 mm 0 W/m2
19:44 4.4 °C 3.4 °C 1029.8 hPa Calm     93% 0.0 mm 0 W/m2
19:49 4.2 °C 3.2 °C 1029.8 hPa Calm     93% 0.0 mm 0 W/m2
19:54 4.1 °C 3.2 °C 1029.8 hPa NW 1.4 km/h 6.4 km/h 94% 0.0 mm 0 W/m2
19:59 4.2 °C 3.3 °C 1029.8 hPa NW 1.4 km/h 8 km/h 94% 0.0 mm 0 W/m2
20:04 4.3 °C 3.4 °C 1029.5 hPa WNW 6.4 km/h 9.7 km/h 94% 0.0 mm 0 W/m2
20:09 4.3 °C 3.4 °C 1029.5 hPa WNW 1.4 km/h 1.6 km/h 94% 0.0 mm 0 W/m2
20:14 4.3 °C 3.4 °C 1029.5 hPa Calm   4.8 km/h 94% 0.0 mm 0 W/m2
20:20 4.3 °C 3.4 °C 1029.5 hPa Calm   1.6 km/h 94% 0.0 mm 0 W/m2
20:25 4.2 °C 3.2 °C 1029.5 hPa Calm   3.2 km/h 93% 0.0 mm 0 W/m2
20:30 4.1 °C 3.1 °C 1029.5 hPa Calm     93% 0.0 mm 0 W/m2
20:35 3.9 °C 2.9 °C 1029.5 hPa Calm     93% 0.0 mm 0 W/m2
20:40 3.8 °C 2.8 °C 1029.5 hPa Calm   1.6 km/h 93% 0.0 mm 0 W/m2
20:45 3.7 °C 2.7 °C 1029.5 hPa Calm     93% 0.0 mm 0 W/m2
20:50 3.7 °C 2.8 °C 1029.8 hPa Calm     94% 0.0 mm 0 W/m2
20:55 3.5 °C 2.5 °C 1029.8 hPa Calm     93% 0.0 mm 0 W/m2
21:00 3.3 °C 2.4 °C 1029.8 hPa Calm     94% 0.0 mm 0 W/m2
21:05 3.2 °C 2.3 °C 1029.5 hPa Calm     94% 0.0 mm 0 W/m2
21:10 3.2 °C 2.3 °C 1029.8 hPa Calm   1.6 km/h 94% 0.0 mm 0 W/m2
21:15 3.2 °C 2.5 °C 1029.5 hPa Calm   1.6 km/h 95% 0.0 mm 0 W/m2
21:20 3.2 °C 2.5 °C 1029.1 hPa ESE 1.4 km/h 3.2 km/h 95% 0.0 mm 0 W/m2
21:25 3.1 °C 2.2 °C 1029.1 hPa Calm   1.6 km/h 94% 0.0 mm 0 W/m2
21:30 3.2 °C 2.5 °C 1029.1 hPa Calm   3.2 km/h 95% 0.0 mm 0 W/m2
21:35 3.2 °C 2.5 °C 1029.1 hPa Calm     95% 0.0 mm 0 W/m2
21:40 3.2 °C 2.5 °C 1029.1 hPa Calm   3.2 km/h 95% 0.0 mm 0 W/m2
21:45 3.2 °C 2.5 °C 1029.5 hPa Calm     95% 0.0 mm 0 W/m2
21:51 3.2 °C 2.5 °C 1029.1 hPa Calm     95% 0.0 mm 0 W/m2
21:56 3.1 °C 2.4 °C 1029.5 hPa Calm     95% 0.0 mm 0 W/m2
22:01 3.1 °C 2.4 °C 1029.1 hPa Calm     95% 0.0 mm 0 W/m2
22:06 3.2 °C 2.6 °C 1029.1 hPa Calm     96% 0.0 mm 0 W/m2
22:11 3.3 °C 2.7 °C 1029.1 hPa Calm     96% 0.0 mm 0 W/m2
22:16 3.3 °C 2.6 °C 1029.1 hPa Calm     95% 0.0 mm 0 W/m2
22:21 3.4 °C 2.8 °C 1029.5 hPa Calm   3.2 km/h 96% 0.0 mm 0 W/m2
22:26 3.4 °C 2.7 °C 1029.1 hPa Calm     95% 0.0 mm 0 W/m2
22:31 3.4 °C 2.8 °C 1029.1 hPa Calm     96% 0.0 mm 0 W/m2
22:36 3.4 °C 2.7 °C 1029.1 hPa WNW 1.4 km/h 4.8 km/h 95% 0.0 mm 0 W/m2
22:41 3.4 °C 2.7 °C 1029.1 hPa Calm   3.2 km/h 95% 0.0 mm 0 W/m2
22:46 3.4 °C 2.7 °C 1029.1 hPa Calm   4.8 km/h 95% 0.0 mm 0 W/m2
22:51 3.2 °C 2.5 °C 1028.8 hPa Calm     95% 0.0 mm 0 W/m2
22:56 3.1 °C 2.2 °C 1028.8 hPa Calm     94% 0.0 mm 0 W/m2
23:01 2.9 °C 2.2 °C 1028.8 hPa East 1.4 km/h 3.2 km/h 95% 0.0 mm 0 W/m2
23:07 2.8 °C 2.1 °C 1028.8 hPa Calm     95% 0.0 mm 0 W/m2
23:12 2.8 °C 2.1 °C 1028.8 hPa Calm   1.6 km/h 95% 0.0 mm 0 W/m2
23:17 2.7 °C 2 °C 1028.8 hPa Calm     95% 0.0 mm 0 W/m2
23:22 2.7 °C 2 °C 1028.8 hPa Calm   1.6 km/h 95% 0.0 mm 0 W/m2
23:27 2.7 °C 2 °C 1028.8 hPa Calm     95% 0.0 mm 0 W/m2
23:32 2.7 °C 2 °C 1028.8 hPa Calm     95% 0.0 mm 0 W/m2
23:37 2.8 °C 2.1 °C 1028.8 hPa Calm   1.6 km/h 95% 0.0 mm 0 W/m2
23:42 2.8 °C 2.2 °C 1028.8 hPa Calm     96% 0.0 mm 0 W/m2
23:47 2.9 °C 2.3 °C 1028.5 hPa ESE 1.4 km/h 3.2 km/h 96% 0.0 mm 0 W/m2
23:52 3 °C 2.4 °C 1028.5 hPa ESE 3.2 km/h 3.2 km/h 96% 0.0 mm 0 W/m2
23:57 3 °C 2.4 °C 1028.5 hPa ESE 3.2 km/h 4.8 km/h 96% 0.0 mm 0 W/m2
Juneau County Weather
Compliments of Weather Underground - 4 mb